sensor_id;sensor_type;location;lat;lon;timestamp;P1;durP1;ratioP1;P2;durP2;ratioP2
65982;SDS011;52740;40.620;-8.640;2022-08-24T00:00:58;21.40;;;17.45;;
65982;SDS011;52740;40.620;-8.640;2022-08-24T00:02:59;26.00;;;17.73;;
65982;SDS011;52740;40.620;-8.640;2022-08-24T00:05:00;23.60;;;20.30;;
65982;SDS011;52740;40.620;-8.640;2022-08-24T00:07:01;26.73;;;17.27;;
65982;SDS011;52740;40.620;-8.640;2022-08-24T00:09:03;27.85;;;20.23;;
65982;SDS011;52740;40.620;-8.640;2022-08-24T00:11:04;22.55;;;19.02;;
65982;SDS011;52740;40.620;-8.640;2022-08-24T00:13:06;22.83;;;20.45;;
65982;SDS011;52740;40.620;-8.640;2022-08-24T00:15:08;27.85;;;19.27;;
65982;SDS011;52740;40.620;-8.640;2022-08-24T00:17:11;31.55;;;19.73;;
65982;SDS011;52740;40.620;-8.640;2022-08-24T00:19:12;21.23;;;18.35;;
65982;SDS011;52740;40.620;-8.640;2022-08-24T00:21:13;29.38;;;17.02;;
65982;SDS011;52740;40.620;-8.640;2022-08-24T00:23:14;21.73;;;18.55;;
65982;SDS011;52740;40.620;-8.640;2022-08-24T00:25:15;30.80;;;21.00;;
65982;SDS011;52740;40.620;-8.640;2022-08-24T00:27:17;35.50;;;20.45;;
65982;SDS011;52740;40.620;-8.640;2022-08-24T00:29:18;27.15;;;21.40;;
65982;SDS011;52740;40.620;-8.640;2022-08-24T00:31:20;24.58;;;21.20;;
65982;SDS011;52740;40.620;-8.640;2022-08-24T00:33:21;19.45;;;18.05;;
65982;SDS011;52740;40.620;-8.640;2022-08-24T00:35:22;19.38;;;17.63;;
65982;SDS011;52740;40.620;-8.640;2022-08-24T00:37:25;22.35;;;19.95;;
65982;SDS011;52740;40.620;-8.640;2022-08-24T00:39:27;24.42;;;20.70;;
65982;SDS011;52740;40.620;-8.640;2022-08-24T00:41:28;24.50;;;19.08;;
65982;SDS011;52740;40.620;-8.640;2022-08-24T00:43:29;19.17;;;17.38;;
65982;SDS011;52740;40.620;-8.640;2022-08-24T00:48:21;18.25;;;16.55;;
65982;SDS011;52740;40.620;-8.640;2022-08-24T00:50:40;19.65;;;18.00;;
65982;SDS011;52740;40.620;-8.640;2022-08-24T00:52:45;19.88;;;17.10;;
65982;SDS011;52740;40.620;-8.640;2022-08-24T00:55:00;23.35;;;20.60;;
65982;SDS011;52740;40.620;-8.640;2022-08-24T00:57:07;20.40;;;18.10;;
65982;SDS011;52740;40.620;-8.640;2022-08-24T00:59:13;24.05;;;21.77;;
65982;SDS011;52740;40.620;-8.640;2022-08-24T01:01:18;23.00;;;20.60;;
65982;SDS011;52740;40.620;-8.640;2022-08-24T01:03:19;24.83;;;19.67;;
65982;SDS011;52740;40.620;-8.640;2022-08-24T01:05:19;24.65;;;21.83;;
65982;SDS011;52740;40.620;-8.640;2022-08-24T01:07:22;22.02;;;19.85;;
65982;SDS011;52740;40.620;-8.640;2022-08-24T01:09:24;20.55;;;19.10;;
65982;SDS011;52740;40.620;-8.640;2022-08-24T01:11:27;19.90;;;18.40;;
65982;SDS011;52740;40.620;-8.640;2022-08-24T01:13:30;20.17;;;18.77;;
65982;SDS011;52740;40.620;-8.640;2022-08-24T01:15:33;22.75;;;20.77;;
65982;SDS011;52740;40.620;-8.640;2022-08-24T01:17:37;19.15;;;17.45;;
65982;SDS011;52740;40.620;-8.640;2022-08-24T01:19:57;19.48;;;17.67;;
65982;SDS011;52740;40.620;-8.640;2022-08-24T01:22:23;18.55;;;17.02;;
65982;SDS011;52740;40.620;-8.640;2022-08-24T01:24:34;17.23;;;15.60;;
65982;SDS011;52740;40.620;-8.640;2022-08-24T01:26:37;17.05;;;15.63;;
65982;SDS011;52740;40.620;-8.640;2022-08-24T01:28:43;17.05;;;15.85;;
65982;SDS011;52740;40.620;-8.640;2022-08-24T01:30:46;19.25;;;15.35;;
65982;SDS011;52740;40.620;-8.640;2022-08-24T01:32:51;17.70;;;16.05;;
65982;SDS011;52740;40.620;-8.640;2022-08-24T01:34:57;15.85;;;14.82;;
65982;SDS011;52740;40.620;-8.640;2022-08-24T01:36:57;18.58;;;16.85;;
65982;SDS011;52740;40.620;-8.640;2022-08-24T01:39:00;16.52;;;15.30;;
65982;SDS011;52740;40.620;-8.640;2022-08-24T01:41:05;16.05;;;14.73;;
65982;SDS011;52740;40.620;-8.640;2022-08-24T01:43:06;14.98;;;13.68;;
65982;SDS011;52740;40.620;-8.640;2022-08-24T01:45:08;14.93;;;13.63;;
65982;SDS011;52740;40.620;-8.640;2022-08-24T01:47:10;14.88;;;13.98;;
65982;SDS011;52740;40.620;-8.640;2022-08-24T01:49:13;15.18;;;14.10;;
65982;SDS011;52740;40.620;-8.640;2022-08-24T01:51:14;16.02;;;14.73;;
65982;SDS011;52740;40.620;-8.640;2022-08-24T01:53:15;16.50;;;15.00;;
65982;SDS011;52740;40.620;-8.640;2022-08-24T01:55:17;15.82;;;14.60;;
65982;SDS011;52740;40.620;-8.640;2022-08-24T01:57:18;15.43;;;14.43;;
65982;SDS011;52740;40.620;-8.640;2022-08-24T01:59:19;15.82;;;14.60;;
65982;SDS011;52740;40.620;-8.640;2022-08-24T02:01:21;14.52;;;13.38;;
65982;SDS011;52740;40.620;-8.640;2022-08-24T02:03:23;15.63;;;14.32;;
65982;SDS011;52740;40.620;-8.640;2022-08-24T02:05:28;15.20;;;14.27;;
65982;SDS011;52740;40.620;-8.640;2022-08-24T02:07:29;14.98;;;13.52;;
65982;SDS011;52740;40.620;-8.640;2022-08-24T02:09:32;18.10;;;14.18;;
65982;SDS011;52740;40.620;-8.640;2022-08-24T02:11:33;15.45;;;14.48;;
65982;SDS011;52740;40.620;-8.640;2022-08-24T02:13:36;13.85;;;13.02;;
65982;SDS011;52740;40.620;-8.640;2022-08-24T02:15:39;16.52;;;15.20;;
65982;SDS011;52740;40.620;-8.640;2022-08-24T02:17:42;14.23;;;13.23;;
65982;SDS011;52740;40.620;-8.640;2022-08-24T02:19:43;16.15;;;15.10;;
65982;SDS011;52740;40.620;-8.640;2022-08-24T02:21:44;15.80;;;14.80;;
65982;SDS011;52740;40.620;-8.640;2022-08-24T02:23:46;15.10;;;13.85;;
65982;SDS011;52740;40.620;-8.640;2022-08-24T02:25:47;14.82;;;14.02;;
65982;SDS011;52740;40.620;-8.640;2022-08-24T02:27:48;13.55;;;12.75;;
65982;SDS011;52740;40.620;-8.640;2022-08-24T02:29:49;13.70;;;12.57;;
65982;SDS011;52740;40.620;-8.640;2022-08-24T02:31:50;13.68;;;12.98;;
65982;SDS011;52740;40.620;-8.640;2022-08-24T02:33:51;15.70;;;14.85;;
65982;SDS011;52740;40.620;-8.640;2022-08-24T02:35:52;13.88;;;12.88;;
65982;SDS011;52740;40.620;-8.640;2022-08-24T02:37:53;14.20;;;13.25;;
65982;SDS011;52740;40.620;-8.640;2022-08-24T02:39:54;13.02;;;12.20;;
65982;SDS011;52740;40.620;-8.640;2022-08-24T02:41:57;13.65;;;12.88;;
65982;SDS011;52740;40.620;-8.640;2022-08-24T02:43:58;14.20;;;13.50;;
65982;SDS011;52740;40.620;-8.640;2022-08-24T02:45:59;12.90;;;12.10;;
65982;SDS011;52740;40.620;-8.640;2022-08-24T02:47:59;13.35;;;12.65;;
65982;SDS011;52740;40.620;-8.640;2022-08-24T02:50:02;11.70;;;11.10;;
65982;SDS011;52740;40.620;-8.640;2022-08-24T02:52:04;13.23;;;12.25;;
65982;SDS011;52740;40.620;-8.640;2022-08-24T02:54:08;12.52;;;11.73;;
65982;SDS011;52740;40.620;-8.640;2022-08-24T02:56:10;13.48;;;12.57;;
65982;SDS011;52740;40.620;-8.640;2022-08-24T02:58:12;14.20;;;13.40;;
65982;SDS011;52740;40.620;-8.640;2022-08-24T03:00:16;13.07;;;12.27;;
65982;SDS011;52740;40.620;-8.640;2022-08-24T03:02:23;14.35;;;13.40;;
65982;SDS011;52740;40.620;-8.640;2022-08-24T03:04:25;15.80;;;14.55;;
65982;SDS011;52740;40.620;-8.640;2022-08-24T03:06:26;14.32;;;13.38;;
65982;SDS011;52740;40.620;-8.640;2022-08-24T03:08:27;14.27;;;13.18;;
65982;SDS011;52740;40.620;-8.640;2022-08-24T03:10:28;13.95;;;12.93;;
65982;SDS011;52740;40.620;-8.640;2022-08-24T03:12:29;13.63;;;12.73;;
65982;SDS011;52740;40.620;-8.640;2022-08-24T03:14:29;12.88;;;11.80;;
65982;SDS011;52740;40.620;-8.640;2022-08-24T03:16:30;12.25;;;11.63;;
65982;SDS011;52740;40.620;-8.640;2022-08-24T03:18:31;12.32;;;11.43;;
65982;SDS011;52740;40.620;-8.640;2022-08-24T03:20:33;12.70;;;11.73;;
65982;SDS011;52740;40.620;-8.640;2022-08-24T03:22:33;11.65;;;11.05;;
65982;SDS011;52740;40.620;-8.640;2022-08-24T03:24:34;13.30;;;12.52;;
65982;SDS011;52740;40.620;-8.640;2022-08-24T03:26:35;12.50;;;11.60;;
65982;SDS011;52740;40.620;-8.640;2022-08-24T03:28:35;13.63;;;12.93;;
65982;SDS011;52740;40.620;-8.640;2022-08-24T03:30:37;12.35;;;11.52;;
65982;SDS011;52740;40.620;-8.640;2022-08-24T03:32:40;10.48;;;9.85;;
65982;SDS011;52740;40.620;-8.640;2022-08-24T03:34:41;10.98;;;10.27;;
65982;SDS011;52740;40.620;-8.640;2022-08-24T03:36:42;11.52;;;10.65;;
65982;SDS011;52740;40.620;-8.640;2022-08-24T03:38:47;10.00;;;9.30;;
65982;SDS011;52740;40.620;-8.640;2022-08-24T03:40:49;9.63;;;9.02;;
65982;SDS011;52740;40.620;-8.640;2022-08-24T03:42:50;9.50;;;8.50;;
65982;SDS011;52740;40.620;-8.640;2022-08-24T03:44:52;8.95;;;8.25;;
65982;SDS011;52740;40.620;-8.640;2022-08-24T03:46:53;10.27;;;9.48;;
65982;SDS011;52740;40.620;-8.640;2022-08-24T03:48:55;10.13;;;9.23;;
65982;SDS011;52740;40.620;-8.640;2022-08-24T03:50:57;9.15;;;8.20;;
65982;SDS011;52740;40.620;-8.640;2022-08-24T03:52:58;10.73;;;8.38;;
65982;SDS011;52740;40.620;-8.640;2022-08-24T03:55:01;9.30;;;8.52;;
65982;SDS011;52740;40.620;-8.640;2022-08-24T03:57:03;10.70;;;8.82;;
65982;SDS011;52740;40.620;-8.640;2022-08-24T03:59:04;9.10;;;8.18;;
65982;SDS011;52740;40.620;-8.640;2022-08-24T04:01:11;8.32;;;7.68;;
65982;SDS011;52740;40.620;-8.640;2022-08-24T04:03:12;8.60;;;7.70;;
65982;SDS011;52740;40.620;-8.640;2022-08-24T04:05:13;7.90;;;7.10;;
65982;SDS011;52740;40.620;-8.640;2022-08-24T04:07:15;7.43;;;6.72;;
65982;SDS011;52740;40.620;-8.640;2022-08-24T04:09:16;7.95;;;7.25;;
65982;SDS011;52740;40.620;-8.640;2022-08-24T04:11:21;8.20;;;7.50;;
65982;SDS011;52740;40.620;-8.640;2022-08-24T04:13:23;10.45;;;8.63;;
65982;SDS011;52740;40.620;-8.640;2022-08-24T04:15:24;8.77;;;7.95;;
65982;SDS011;52740;40.620;-8.640;2022-08-24T04:17:25;12.63;;;9.02;;
65982;SDS011;52740;40.620;-8.640;2022-08-24T04:19:26;10.20;;;9.10;;
65982;SDS011;52740;40.620;-8.640;2022-08-24T04:21:30;9.93;;;8.45;;
65982;SDS011;52740;40.620;-8.640;2022-08-24T04:25:44;9.95;;;8.27;;
65982;SDS011;52740;40.620;-8.640;2022-08-24T04:27:46;9.05;;;8.25;;
65982;SDS011;52740;40.620;-8.640;2022-08-24T04:29:46;9.05;;;7.95;;
65982;SDS011;52740;40.620;-8.640;2022-08-24T04:31:47;11.45;;;8.48;;
65982;SDS011;52740;40.620;-8.640;2022-08-24T04:33:49;8.10;;;7.40;;
65982;SDS011;52740;40.620;-8.640;2022-08-24T04:35:51;7.97;;;7.28;;
65982;SDS011;52740;40.620;-8.640;2022-08-24T04:37:52;9.95;;;9.15;;
65982;SDS011;52740;40.620;-8.640;2022-08-24T04:39:53;12.52;;;7.97;;
65982;SDS011;52740;40.620;-8.640;2022-08-24T04:42:00;7.07;;;6.57;;
65982;SDS011;52740;40.620;-8.640;2022-08-24T04:44:03;7.25;;;6.70;;
65982;SDS011;52740;40.620;-8.640;2022-08-24T04:46:04;7.90;;;7.22;;
65982;SDS011;52740;40.620;-8.640;2022-08-24T04:48:07;7.88;;;7.22;;
65982;SDS011;52740;40.620;-8.640;2022-08-24T04:50:08;8.18;;;7.47;;
65982;SDS011;52740;40.620;-8.640;2022-08-24T04:52:09;9.80;;;8.90;;
65982;SDS011;52740;40.620;-8.640;2022-08-24T04:54:10;7.90;;;7.30;;
65982;SDS011;52740;40.620;-8.640;2022-08-24T04:56:13;5.90;;;5.43;;
65982;SDS011;52740;40.620;-8.640;2022-08-24T04:58:17;6.45;;;6.05;;
65982;SDS011;52740;40.620;-8.640;2022-08-24T05:00:18;5.80;;;5.30;;
65982;SDS011;52740;40.620;-8.640;2022-08-24T05:02:19;7.82;;;5.82;;
65982;SDS011;52740;40.620;-8.640;2022-08-24T05:04:22;10.90;;;5.40;;
65982;SDS011;52740;40.620;-8.640;2022-08-24T05:06:25;6.05;;;5.63;;
65982;SDS011;52740;40.620;-8.640;2022-08-24T05:08:27;6.57;;;6.18;;
65982;SDS011;52740;40.620;-8.640;2022-08-24T05:10:28;6.25;;;5.75;;
65982;SDS011;52740;40.620;-8.640;2022-08-24T05:12:29;7.65;;;7.20;;
65982;SDS011;52740;40.620;-8.640;2022-08-24T05:14:34;6.53;;;5.97;;
65982;SDS011;52740;40.620;-8.640;2022-08-24T05:16:35;6.60;;;6.20;;
65982;SDS011;52740;40.620;-8.640;2022-08-24T05:18:37;6.30;;;5.90;;
65982;SDS011;52740;40.620;-8.640;2022-08-24T05:20:41;5.93;;;5.53;;
65982;SDS011;52740;40.620;-8.640;2022-08-24T05:22:44;9.85;;;5.72;;
65982;SDS011;52740;40.620;-8.640;2022-08-24T05:24:45;6.25;;;5.75;;
65982;SDS011;52740;40.620;-8.640;2022-08-24T05:26:46;5.97;;;5.47;;
65982;SDS011;52740;40.620;-8.640;2022-08-24T05:28:47;5.90;;;5.40;;
65982;SDS011;52740;40.620;-8.640;2022-08-24T05:30:48;6.28;;;5.65;;
65982;SDS011;52740;40.620;-8.640;2022-08-24T05:32:49;7.07;;;6.38;;
65982;SDS011;52740;40.620;-8.640;2022-08-24T05:34:50;6.82;;;6.32;;
65982;SDS011;52740;40.620;-8.640;2022-08-24T05:36:51;7.57;;;7.07;;
65982;SDS011;52740;40.620;-8.640;2022-08-24T05:39:12;8.20;;;7.55;;
65982;SDS011;52740;40.620;-8.640;2022-08-24T05:41:16;8.45;;;7.95;;
65982;SDS011;52740;40.620;-8.640;2022-08-24T05:43:19;7.60;;;7.10;;
65982;SDS011;52740;40.620;-8.640;2022-08-24T05:45:20;9.68;;;8.70;;
65982;SDS011;52740;40.620;-8.640;2022-08-24T05:47:23;8.52;;;7.90;;
65982;SDS011;52740;40.620;-8.640;2022-08-24T05:49:26;9.82;;;9.15;;
65982;SDS011;52740;40.620;-8.640;2022-08-24T05:51:28;13.95;;;9.05;;
65982;SDS011;52740;40.620;-8.640;2022-08-24T05:53:34;9.68;;;8.98;;
65982;SDS011;52740;40.620;-8.640;2022-08-24T05:55:37;9.75;;;8.95;;
65982;SDS011;52740;40.620;-8.640;2022-08-24T05:57:38;9.35;;;8.55;;
65982;SDS011;52740;40.620;-8.640;2022-08-24T05:59:55;11.40;;;10.40;;
65982;SDS011;52740;40.620;-8.640;2022-08-24T06:01:55;9.90;;;9.10;;
65982;SDS011;52740;40.620;-8.640;2022-08-24T06:03:57;9.65;;;8.90;;
65982;SDS011;52740;40.620;-8.640;2022-08-24T06:06:00;9.80;;;9.18;;
65982;SDS011;52740;40.620;-8.640;2022-08-24T06:08:02;9.10;;;8.40;;
65982;SDS011;52740;40.620;-8.640;2022-08-24T06:10:03;9.35;;;8.63;;
65982;SDS011;52740;40.620;-8.640;2022-08-24T06:12:04;11.63;;;10.63;;
65982;SDS011;52740;40.620;-8.640;2022-08-24T06:14:08;10.82;;;9.95;;
65982;SDS011;52740;40.620;-8.640;2022-08-24T06:16:20;11.45;;;10.40;;
65982;SDS011;52740;40.620;-8.640;2022-08-24T06:18:21;12.35;;;11.13;;
65982;SDS011;52740;40.620;-8.640;2022-08-24T06:20:24;11.75;;;10.85;;
65982;SDS011;52740;40.620;-8.640;2022-08-24T06:22:25;11.90;;;11.00;;
65982;SDS011;52740;40.620;-8.640;2022-08-24T06:24:27;11.07;;;10.27;;
65982;SDS011;52740;40.620;-8.640;2022-08-24T06:26:46;8.35;;;7.75;;
65982;SDS011;52740;40.620;-8.640;2022-08-24T06:29:06;8.93;;;8.23;;
65982;SDS011;52740;40.620;-8.640;2022-08-24T06:31:13;9.20;;;8.50;;
65982;SDS011;52740;40.620;-8.640;2022-08-24T06:33:14;9.30;;;8.60;;
65982;SDS011;52740;40.620;-8.640;2022-08-24T06:35:17;8.90;;;8.23;;
65982;SDS011;52740;40.620;-8.640;2022-08-24T06:37:18;8.77;;;8.05;;
65982;SDS011;52740;40.620;-8.640;2022-08-24T06:39:19;9.27;;;8.48;;
65982;SDS011;52740;40.620;-8.640;2022-08-24T06:41:20;8.65;;;7.85;;
65982;SDS011;52740;40.620;-8.640;2022-08-24T06:43:21;7.75;;;7.35;;
65982;SDS011;52740;40.620;-8.640;2022-08-24T06:45:25;7.68;;;7.18;;
65982;SDS011;52740;40.620;-8.640;2022-08-24T06:47:26;8.23;;;7.53;;
65982;SDS011;52740;40.620;-8.640;2022-08-24T06:49:32;8.10;;;7.55;;
65982;SDS011;52740;40.620;-8.640;2022-08-24T06:51:36;7.05;;;6.55;;
65982;SDS011;52740;40.620;-8.640;2022-08-24T06:53:38;7.43;;;6.82;;
65982;SDS011;52740;40.620;-8.640;2022-08-24T06:55:44;9.57;;;8.90;;
65982;SDS011;52740;40.620;-8.640;2022-08-24T06:57:48;10.45;;;7.20;;
65982;SDS011;52740;40.620;-8.640;2022-08-24T06:59:48;8.02;;;7.15;;
65982;SDS011;52740;40.620;-8.640;2022-08-24T07:01:49;7.72;;;7.22;;
65982;SDS011;52740;40.620;-8.640;2022-08-24T07:03:51;7.47;;;6.78;;
65982;SDS011;52740;40.620;-8.640;2022-08-24T07:06:03;7.53;;;6.82;;
65982;SDS011;52740;40.620;-8.640;2022-08-24T07:08:10;12.02;;;7.38;;
65982;SDS011;52740;40.620;-8.640;2022-08-24T07:10:11;7.68;;;7.05;;
65982;SDS011;52740;40.620;-8.640;2022-08-24T07:12:12;7.38;;;6.78;;
65982;SDS011;52740;40.620;-8.640;2022-08-24T07:14:12;7.28;;;6.68;;
65982;SDS011;52740;40.620;-8.640;2022-08-24T07:16:14;7.32;;;6.68;;
65982;SDS011;52740;40.620;-8.640;2022-08-24T07:18:19;9.35;;;6.00;;
65982;SDS011;52740;40.620;-8.640;2022-08-24T07:20:22;6.65;;;6.05;;
65982;SDS011;52740;40.620;-8.640;2022-08-24T07:22:53;6.93;;;6.32;;
65982;SDS011;52740;40.620;-8.640;2022-08-24T07:24:54;6.43;;;5.82;;
65982;SDS011;52740;40.620;-8.640;2022-08-24T07:26:55;6.95;;;6.25;;
65982;SDS011;52740;40.620;-8.640;2022-08-24T07:28:57;6.38;;;5.88;;
65982;SDS011;52740;40.620;-8.640;2022-08-24T07:31:08;6.43;;;5.93;;
65982;SDS011;52740;40.620;-8.640;2022-08-24T07:33:15;6.28;;;5.70;;
65982;SDS011;52740;40.620;-8.640;2022-08-24T07:35:15;6.63;;;6.03;;
65982;SDS011;52740;40.620;-8.640;2022-08-24T07:37:17;6.15;;;5.57;;
65982;SDS011;52740;40.620;-8.640;2022-08-24T07:39:21;6.90;;;5.53;;
65982;SDS011;52740;40.620;-8.640;2022-08-24T07:41:22;6.68;;;6.07;;
65982;SDS011;52740;40.620;-8.640;2022-08-24T07:43:25;12.98;;;5.88;;
65982;SDS011;52740;40.620;-8.640;2022-08-24T07:45:27;7.63;;;6.10;;
65982;SDS011;52740;40.620;-8.640;2022-08-24T07:47:29;7.72;;;6.40;;
65982;SDS011;52740;40.620;-8.640;2022-08-24T07:49:30;7.15;;;6.55;;
65982;SDS011;52740;40.620;-8.640;2022-08-24T07:51:32;7.25;;;6.65;;
65982;SDS011;52740;40.620;-8.640;2022-08-24T07:53:33;8.88;;;8.38;;
65982;SDS011;52740;40.620;-8.640;2022-08-24T07:55:35;16.17;;;15.25;;
65982;SDS011;52740;40.620;-8.640;2022-08-24T07:57:36;22.88;;;21.58;;
65982;SDS011;52740;40.620;-8.640;2022-08-24T07:59:39;25.77;;;24.35;;
65982;SDS011;52740;40.620;-8.640;2022-08-24T08:01:41;28.73;;;27.25;;
65982;SDS011;52740;40.620;-8.640;2022-08-24T08:03:44;30.20;;;28.60;;
65982;SDS011;52740;40.620;-8.640;2022-08-24T08:05:45;31.23;;;29.25;;
65982;SDS011;52740;40.620;-8.640;2022-08-24T08:07:46;30.27;;;28.48;;
65982;SDS011;52740;40.620;-8.640;2022-08-24T08:09:47;29.80;;;28.20;;
65982;SDS011;52740;40.620;-8.640;2022-08-24T08:11:50;29.17;;;27.23;;
65982;SDS011;52740;40.620;-8.640;2022-08-24T08:13:51;27.23;;;25.52;;
65982;SDS011;52740;40.620;-8.640;2022-08-24T08:15:53;27.33;;;25.65;;
65982;SDS011;52740;40.620;-8.640;2022-08-24T08:17:56;22.92;;;21.60;;
65982;SDS011;52740;40.620;-8.640;2022-08-24T08:19:58;17.35;;;16.35;;
65982;SDS011;52740;40.620;-8.640;2022-08-24T08:21:58;15.88;;;15.07;;
65982;SDS011;52740;40.620;-8.640;2022-08-24T08:24:44;14.73;;;13.82;;
65982;SDS011;52740;40.620;-8.640;2022-08-24T08:26:47;14.25;;;13.43;;
65982;SDS011;52740;40.620;-8.640;2022-08-24T08:29:00;13.48;;;12.68;;
65982;SDS011;52740;40.620;-8.640;2022-08-24T08:31:04;12.65;;;11.90;;
65982;SDS011;52740;40.620;-8.640;2022-08-24T08:33:05;13.25;;;12.55;;
65982;SDS011;52740;40.620;-8.640;2022-08-24T08:35:06;15.40;;;14.25;;
65982;SDS011;52740;40.620;-8.640;2022-08-24T08:37:09;16.02;;;14.98;;
65982;SDS011;52740;40.620;-8.640;2022-08-24T08:39:11;19.70;;;18.40;;
65982;SDS011;52740;40.620;-8.640;2022-08-24T08:50:30;17.63;;;16.60;;
65982;SDS011;52740;40.620;-8.640;2022-08-24T08:53:33;19.30;;;18.00;;
65982;SDS011;52740;40.620;-8.640;2022-08-24T08:55:14;23.80;;;22.40;;
65982;SDS011;52740;40.620;-8.640;2022-08-24T09:17:07;16.55;;;15.55;;
65982;SDS011;52740;40.620;-8.640;2022-08-24T09:19:22;16.63;;;15.73;;
65982;SDS011;52740;40.620;-8.640;2022-08-24T09:23:58;13.93;;;13.00;;
65982;SDS011;52740;40.620;-8.640;2022-08-24T09:26:21;13.15;;;12.45;;
65982;SDS011;52740;40.620;-8.640;2022-08-24T09:30:50;18.10;;;17.02;;
65982;SDS011;52740;40.620;-8.640;2022-08-24T09:33:06;13.43;;;12.60;;
65982;SDS011;52740;40.620;-8.640;2022-08-24T09:35:45;12.68;;;11.68;;
65982;SDS011;52740;40.620;-8.640;2022-08-24T09:52:13;8.90;;;7.97;;
65982;SDS011;52740;40.620;-8.640;2022-08-24T10:04:35;10.48;;;8.30;;
65982;SDS011;52740;40.620;-8.640;2022-08-24T10:08:34;8.65;;;7.85;;
65982;SDS011;52740;40.620;-8.640;2022-08-24T10:17:49;8.60;;;8.00;;
65982;SDS011;52740;40.620;-8.640;2022-08-24T10:20:16;14.05;;;8.35;;
65982;SDS011;52740;40.620;-8.640;2022-08-24T10:35:21;14.52;;;13.55;;
65982;SDS011;52740;40.620;-8.640;2022-08-24T10:37:17;17.45;;;15.85;;
65982;SDS011;52740;40.620;-8.640;2022-08-24T10:44:42;44.00;;;28.80;;
65982;SDS011;52740;40.620;-8.640;2022-08-24T10:46:50;37.97;;;33.75;;
65982;SDS011;52740;40.620;-8.640;2022-08-24T10:49:04;35.05;;;32.70;;
65982;SDS011;52740;40.620;-8.640;2022-08-24T10:53:31;32.05;;;30.17;;
65982;SDS011;52740;40.620;-8.640;2022-08-24T10:55:33;31.88;;;29.75;;
65982;SDS011;52740;40.620;-8.640;2022-08-24T10:57:36;24.48;;;22.92;;
65982;SDS011;52740;40.620;-8.640;2022-08-24T11:02:02;18.60;;;17.52;;
65982;SDS011;52740;40.620;-8.640;2022-08-24T11:06:13;16.38;;;15.48;;
65982;SDS011;52740;40.620;-8.640;2022-08-24T11:10:36;18.25;;;17.05;;
65982;SDS011;52740;40.620;-8.640;2022-08-24T11:12:39;22.38;;;20.85;;
65982;SDS011;52740;40.620;-8.640;2022-08-24T11:14:45;27.17;;;25.58;;
65982;SDS011;52740;40.620;-8.640;2022-08-24T11:16:47;27.15;;;25.60;;
65982;SDS011;52740;40.620;-8.640;2022-08-24T11:18:49;29.20;;;27.55;;
65982;SDS011;52740;40.620;-8.640;2022-08-24T11:20:54;41.17;;;38.85;;
65982;SDS011;52740;40.620;-8.640;2022-08-24T11:25:19;37.30;;;35.28;;
65982;SDS011;52740;40.620;-8.640;2022-08-24T11:27:33;33.63;;;31.58;;
65982;SDS011;52740;40.620;-8.640;2022-08-24T11:31:49;31.27;;;29.45;;
65982;SDS011;52740;40.620;-8.640;2022-08-24T11:33:57;21.73;;;20.48;;
65982;SDS011;52740;40.620;-8.640;2022-08-24T11:36:13;26.85;;;25.42;;
65982;SDS011;52740;40.620;-8.640;2022-08-24T11:38:22;25.02;;;23.48;;
65982;SDS011;52740;40.620;-8.640;2022-08-24T11:40:27;35.95;;;33.90;;
65982;SDS011;52740;40.620;-8.640;2022-08-24T11:44:48;38.72;;;36.58;;
65982;SDS011;52740;40.620;-8.640;2022-08-24T11:47:08;28.08;;;26.55;;
65982;SDS011;52740;40.620;-8.640;2022-08-24T11:55:53;16.15;;;15.15;;
65982;SDS011;52740;40.620;-8.640;2022-08-24T12:00:26;17.15;;;16.02;;
65982;SDS011;52740;40.620;-8.640;2022-08-24T12:02:40;25.15;;;23.75;;
65982;SDS011;52740;40.620;-8.640;2022-08-24T12:05:22;40.95;;;38.83;;
65982;SDS011;52740;40.620;-8.640;2022-08-24T12:14:16;18.42;;;17.25;;
65982;SDS011;52740;40.620;-8.640;2022-08-24T12:20:46;13.98;;;13.18;;
65982;SDS011;52740;40.620;-8.640;2022-08-24T12:22:49;15.27;;;14.35;;
65982;SDS011;52740;40.620;-8.640;2022-08-24T12:24:53;26.08;;;24.38;;
65982;SDS011;52740;40.620;-8.640;2022-08-24T12:26:57;30.08;;;28.50;;
65982;SDS011;52740;40.620;-8.640;2022-08-24T12:29:12;37.40;;;35.30;;
65982;SDS011;52740;40.620;-8.640;2022-08-24T12:31:16;41.38;;;38.90;;
65982;SDS011;52740;40.620;-8.640;2022-08-24T12:33:23;44.38;;;41.78;;
65982;SDS011;52740;40.620;-8.640;2022-08-24T12:35:35;43.15;;;40.67;;
65982;SDS011;52740;40.620;-8.640;2022-08-24T12:44:06;42.85;;;40.53;;
65982;SDS011;52740;40.620;-8.640;2022-08-24T12:46:11;40.15;;;37.92;;
65982;SDS011;52740;40.620;-8.640;2022-08-24T12:55:14;38.85;;;36.40;;
65982;SDS011;52740;40.620;-8.640;2022-08-24T13:00:08;43.63;;;40.92;;
65982;SDS011;52740;40.620;-8.640;2022-08-24T13:04:30;47.95;;;45.15;;
65982;SDS011;52740;40.620;-8.640;2022-08-24T13:06:53;42.92;;;40.25;;
65982;SDS011;52740;40.620;-8.640;2022-08-24T13:09:26;31.75;;;29.80;;
65982;SDS011;52740;40.620;-8.640;2022-08-24T13:16:03;44.65;;;42.03;;
65982;SDS011;52740;40.620;-8.640;2022-08-24T13:20:22;42.15;;;39.85;;
65982;SDS011;52740;40.620;-8.640;2022-08-24T13:26:30;39.67;;;37.42;;
65982;SDS011;52740;40.620;-8.640;2022-08-24T13:28:39;44.30;;;41.88;;
65982;SDS011;52740;40.620;-8.640;2022-08-24T13:33:26;21.85;;;20.42;;
65982;SDS011;52740;40.620;-8.640;2022-08-24T13:37:40;16.92;;;15.82;;
65982;SDS011;52740;40.620;-8.640;2022-08-24T13:42:10;16.70;;;15.50;;
65982;SDS011;52740;40.620;-8.640;2022-08-24T13:44:22;16.85;;;15.55;;
65982;SDS011;52740;40.620;-8.640;2022-08-24T13:46:49;14.88;;;13.48;;
65982;SDS011;52740;40.620;-8.640;2022-08-24T13:48:53;15.77;;;14.32;;
65982;SDS011;52740;40.620;-8.640;2022-08-24T13:57:50;42.00;;;39.40;;
65982;SDS011;52740;40.620;-8.640;2022-08-24T14:02:41;41.72;;;38.70;;
65982;SDS011;52740;40.620;-8.640;2022-08-24T14:07:18;75.53;;;71.40;;
65982;SDS011;52740;40.620;-8.640;2022-08-24T14:21:19;18.25;;;16.85;;
65982;SDS011;52740;40.620;-8.640;2022-08-24T14:25:30;11.52;;;10.65;;
65982;SDS011;52740;40.620;-8.640;2022-08-24T14:27:42;26.00;;;11.82;;
65982;SDS011;52740;40.620;-8.640;2022-08-24T14:29:44;18.77;;;11.23;;
65982;SDS011;52740;40.620;-8.640;2022-08-24T14:33:58;13.57;;;10.00;;
65982;SDS011;52740;40.620;-8.640;2022-08-24T14:36:20;29.45;;;11.25;;
65982;SDS011;52740;40.620;-8.640;2022-08-24T14:38:35;25.63;;;13.27;;
65982;SDS011;52740;40.620;-8.640;2022-08-24T14:41:00;18.70;;;12.20;;
65982;SDS011;52740;40.620;-8.640;2022-08-24T14:43:30;14.55;;;11.73;;
65982;SDS011;52740;40.620;-8.640;2022-08-24T14:48:19;13.48;;;12.40;;
65982;SDS011;52740;40.620;-8.640;2022-08-24T14:50:37;13.15;;;12.13;;
65982;SDS011;52740;40.620;-8.640;2022-08-24T14:52:45;11.05;;;10.35;;
65982;SDS011;52740;40.620;-8.640;2022-08-24T15:04:31;17.27;;;16.08;;
65982;SDS011;52740;40.620;-8.640;2022-08-24T15:06:48;23.65;;;21.75;;
65982;SDS011;52740;40.620;-8.640;2022-08-24T15:08:50;17.02;;;16.17;;
65982;SDS011;52740;40.620;-8.640;2022-08-24T15:10:55;18.67;;;17.65;;
65982;SDS011;52740;40.620;-8.640;2022-08-24T15:13:03;17.45;;;16.45;;
65982;SDS011;52740;40.620;-8.640;2022-08-24T15:15:11;20.15;;;18.85;;
65982;SDS011;52740;40.620;-8.640;2022-08-24T15:17:22;21.58;;;20.33;;
65982;SDS011;52740;40.620;-8.640;2022-08-24T15:19:39;22.80;;;21.52;;
65982;SDS011;52740;40.620;-8.640;2022-08-24T15:21:56;16.58;;;15.60;;
65982;SDS011;52740;40.620;-8.640;2022-08-24T15:26:50;14.48;;;13.48;;
65982;SDS011;52740;40.620;-8.640;2022-08-24T15:29:14;14.32;;;13.35;;
65982;SDS011;52740;40.620;-8.640;2022-08-24T15:31:22;20.98;;;19.60;;
65982;SDS011;52740;40.620;-8.640;2022-08-24T15:33:27;22.08;;;20.73;;